Portada
METAR-TAF:

METAR-TAF

Aeroports :

Guilin, Xina

latitud: 25-20N, longitud: 110-18E, altitud: 166 m

Observació

L'informe es va fer fa 11 minuts, a les 17:00 UTC
Vent 4 kt del Oest/Nord-Oest, variant entre Oest/Sud-Oest i Nord-Oest
Temperatura 26°C
Humitat 89%
Pressió 1008 hPa
Visibilitat 10 km o més
Escasses núvols a una alçada de 5000 ft

METAR: ZGKL 201700Z 29002MPS 250V310 9999 FEW050 26/24 Q1008 NOSIG

Hora: 01:11 (17:11 UTC)

Pronòstic

L'informe es va fer fa 8 hores i 0 minuts, a les 09:11 UTC
Pronòstic vàlid del 20 a les 12 UTC al 21 a les 12 UTC
Vent 8 kt del Sud
Visibilitat 10 km o més
Núvols disperses a una alçada de 3300 ft
Temporalment
l' 21 a les 06 UTC al 21 a les 12 UTC
Escasses núvols a una alçada de 3300 ft, Cumulonimbus.
Núvols disperses a una alçada de 3300 ft

TAF: ZGKL 200911Z 2012/2112 18004MPS 9999 SCT033 TX35/2108Z TN24/2022Z TEMPO 2106/2112 FEW033CB SCT033

Observacions i pronòstics meteorològics de més de 4000 aeroports (METAR i TAF).

Les estacions disponibles són els punts grocs i vermells al mapa.

Posi el ratolí al punt desitjat per veure el nom de l'estació.

Feu clic per veure les observacions i els pronòstics meteorològics.

Per canviar el mapa: feu clic els botons verds amb una creu de color negre per apropar; al botó verd amb un guió per allunyar la imatge; o en les fletxes verdes per a mapes adjacents.


METAR-TAF: